Time;durP1;ratioP1;P1;durP2;ratioP2;P2;SDS_P1;SDS_P2;PMS_P1;PMS_P2;Temp;Humidity;BMP_temperature;BMP_pressure;BME280_temperature;BME280_humidity;BME280_pressure;Samples;Min_cycle;Max_cycle;Signal;HPM_P1;HPM_P2
2022/12/01 00:01:12;;;;;;;20.53;16.23;;;;;;;-1.78;100.00;97552.97;5029443;28;20203;-70
2022/12/01 00:03:40;;;;;;;22.63;17.23;;;;;;;-1.79;100.00;97546.09;5001178;28;20273;-70
2022/12/01 00:06:11;;;;;;;22.67;17.83;;;;;;;-1.84;100.00;97548.16;5028969;28;20633;-70
2022/12/01 00:08:39;;;;;;;24.37;16.80;;;;;;;-1.84;100.00;97548.97;4971861;28;22070;-68
2022/12/01 00:11:07;;;;;;;21.37;16.80;;;;;;;-1.88;100.00;97554.50;5027302;28;20195;-70
2022/12/01 00:13:35;;;;;;;23.67;17.20;;;;;;;-1.94;100.00;97543.53;4997174;28;20689;-69
2022/12/01 00:16:12;;;;;;;20.93;17.43;;;;;;;-1.98;100.00;97538.63;5027474;28;20533;-71
2022/12/01 00:18:40;;;;;;;23.90;17.43;;;;;;;-1.97;100.00;97548.09;4995817;28;20556;-71
2022/12/01 00:21:13;;;;;;;24.97;17.70;;;;;;;-2.06;100.00;97542.56;5030117;28;20210;-71
2022/12/01 00:23:43;;;;;;;20.70;16.43;;;;;;;-2.09;100.00;97547.09;4973007;28;20302;-71
2022/12/01 00:26:10;;;;;;;23.97;17.57;;;;;;;-2.09;100.00;97539.31;5028194;28;20230;-73
2022/12/01 00:28:38;;;;;;;26.13;18.37;;;;;;;-2.15;100.00;97545.69;4994499;28;20641;-73
2022/12/01 00:31:07;;;;;;;23.50;17.00;;;;;;;-2.13;100.00;97553.41;5024908;28;20618;-70
2022/12/01 00:33:36;;;;;;;25.17;16.83;;;;;;;-2.13;100.00;97543.84;4991117;28;20219;-70
2022/12/01 00:36:05;;;;;;;23.30;18.17;;;;;;;-2.16;100.00;97548.41;5027306;28;20689;-70
2022/12/01 00:38:32;;;;;;;22.47;17.43;;;;;;;-2.14;100.00;97551.75;5024410;28;20610;-69
2022/12/01 00:41:00;;;;;;;24.13;17.93;;;;;;;-2.13;100.00;97551.63;4974682;28;20219;-70
2022/12/01 00:43:28;;;;;;;23.90;17.43;;;;;;;-2.13;100.00;97546.44;5025641;28;20214;-69
2022/12/01 00:45:56;;;;;;;22.40;16.63;;;;;;;-2.13;100.00;97549.03;5001848;28;20211;-70
2022/12/01 00:48:24;;;;;;;21.87;17.90;;;;;;;-2.16;100.00;97549.22;5016665;28;20255;-69
2022/12/01 00:50:54;;;;;;;22.50;16.90;;;;;;;-2.15;100.00;97556.09;5013791;28;20955;-69
2022/12/01 00:53:23;;;;;;;28.80;18.23;;;;;;;-2.20;100.00;97553.78;5021329;28;20234;-70
2022/12/01 00:55:52;;;;;;;26.80;18.23;;;;;;;-2.15;100.00;97550.06;4974247;28;21201;-70
2022/12/01 00:58:20;;;;;;;23.73;18.57;;;;;;;-2.09;100.00;97549.69;5018588;28;20493;-69
2022/12/01 01:00:48;;;;;;;24.30;18.33;;;;;;;-2.10;100.00;97554.03;4966007;28;20294;-70
2022/12/01 01:03:16;;;;;;;22.87;18.53;;;;;;;-2.04;100.00;97555.44;4996040;28;20322;-71
2022/12/01 01:05:44;;;;;;;24.90;18.87;;;;;;;-2.08;100.00;97553.97;5029810;28;20551;-71
2022/12/01 01:08:14;;;;;;;25.20;19.00;;;;;;;-2.07;100.00;97555.63;4991854;28;20485;-71
2022/12/01 01:10:45;;;;;;;27.93;20.10;;;;;;;-2.08;100.00;97552.22;5027918;28;20207;-68
2022/12/01 01:13:13;;;;;;;28.80;20.13;;;;;;;-2.06;100.00;97554.69;5023236;28;20212;-69
2022/12/01 01:15:41;;;;;;;26.90;19.33;;;;;;;-2.02;100.00;97557.94;4981883;28;20539;-68
2022/12/01 01:18:10;;;;;;;26.10;19.40;;;;;;;-2.05;100.00;97558.97;5029969;28;20246;-71
2022/12/01 01:20:38;;;;;;;28.03;18.83;;;;;;;-2.06;100.00;97560.72;5032381;28;20211;-68
2022/12/01 01:23:06;;;;;;;27.73;18.60;;;;;;;-2.04;100.00;97566.66;5001730;28;20554;-71
2022/12/01 01:25:35;;;;;;;25.13;17.43;;;;;;;-2.01;100.00;97557.84;5031513;28;20455;-71
2022/12/01 01:28:03;;;;;;;30.97;19.50;;;;;;;-1.94;100.00;97560.88;5023668;28;20441;-69
2022/12/01 01:30:31;;;;;;;27.37;19.73;;;;;;;-1.88;100.00;97554.50;4978855;28;20546;-72
2022/12/01 01:32:59;;;;;;;24.33;19.03;;;;;;;-1.90;100.00;97554.56;5019584;28;20459;-72
2022/12/01 01:35:27;;;;;;;27.20;18.90;;;;;;;-1.95;100.00;97543.63;5031404;28;20210;-69
2022/12/01 01:37:54;;;;;;;24.57;18.53;;;;;;;-1.88;100.00;97555.31;4994681;28;20487;-72
2022/12/01 01:40:22;;;;;;;23.27;18.03;;;;;;;-1.87;100.00;97558.75;5036219;28;20463;-72
2022/12/01 01:42:51;;;;;;;26.70;18.67;;;;;;;-1.85;100.00;97549.09;5029871;28;20460;-70
2022/12/01 01:45:24;;;;;;;28.60;20.53;;;;;;;-1.84;100.00;97556.78;5024327;28;20474;-70
2022/12/01 01:47:52;;;;;;;27.77;20.37;;;;;;;-1.82;100.00;97556.69;4975577;28;20996;-70
2022/12/01 01:50:23;;;;;;;24.23;18.67;;;;;;;-1.80;100.00;97552.22;5033031;28;20841;-72
2022/12/01 01:52:53;;;;;;;28.97;18.60;;;;;;;-1.75;100.00;97551.00;5003181;28;20211;-68
2022/12/01 01:55:21;;;;;;;29.27;20.37;;;;;;;-1.73;100.00;97555.25;5033088;28;20208;-73
2022/12/01 01:57:48;;;;;;;27.90;20.07;;;;;;;-1.67;100.00;97557.50;5027276;28;20603;-69
2022/12/01 02:00:20;;;;;;;26.13;19.23;;;;;;;-1.63;100.00;97554.56;5031801;28;20219;-71
2022/12/01 02:02:49;;;;;;;26.97;20.37;;;;;;;-1.67;100.00;97558.31;4979710;28;21044;-70
2022/12/01 02:05:19;;;;;;;30.67;21.17;;;;;;;-1.62;100.00;97552.81;5032145;28;20880;-71
2022/12/01 02:07:47;;;;;;;25.37;19.37;;;;;;;-1.60;100.00;97543.16;5023582;28;20314;-71
2022/12/01 02:10:21;;;;;;;26.90;19.67;;;;;;;-1.62;100.00;97548.44;5002859;28;20634;-71
2022/12/01 02:13:00;;;;;;;24.87;18.83;;;;;;;-1.60;100.00;97545.75;4995770;28;20822;-71
2022/12/01 02:15:33;;;;;;;23.40;19.80;;;;;;;-1.61;100.00;97541.50;5030897;28;20223;-70
2022/12/01 02:18:12;;;;;;;29.60;19.90;;;;;;;-1.61;100.00;97546.69;4943092;28;20235;-72
2022/12/01 02:21:06;;;;;;;23.77;18.40;;;;;;;-1.63;100.00;97538.16;5025347;28;20208;-70
2022/12/01 02:24:22;;;;;;;27.23;19.53;;;;;;;-1.59;100.00;97534.44;5020310;28;20230;-71
2022/12/01 02:26:53;;;;;;;25.03;17.60;;;;;;;-1.63;100.00;97541.59;4992340;28;20216;-70
2022/12/01 02:29:41;;;;;;;24.90;18.93;;;;;;;-1.55;100.00;97535.91;5032028;28;20350;-72
2022/12/01 02:32:16;;;;;;;25.83;19.50;;;;;;;-1.50;100.00;97536.44;5030782;28;20241;-73
2022/12/01 02:34:48;;;;;;;25.07;19.13;;;;;;;-1.47;100.00;97535.41;4975693;28;20238;-71
2022/12/01 02:37:23;;;;;;;26.00;18.63;;;;;;;-1.52;100.00;97537.44;5028663;28;20238;-72
2022/12/01 02:39:55;;;;;;;28.47;19.27;;;;;;;-1.55;100.00;97533.31;4992961;28;20441;-74
2022/12/01 02:42:51;;;;;;;26.90;19.60;;;;;;;-1.61;100.00;97525.91;5002515;28;20211;-70
2022/12/01 02:45:28;;;;;;;29.00;21.53;;;;;;;-1.59;100.00;97524.03;4985626;28;20501;-71
2022/12/01 02:48:01;;;;;;;26.17;18.63;;;;;;;-1.62;100.00;97524.25;5026461;28;20325;-71
2022/12/01 02:50:31;;;;;;;31.40;20.30;;;;;;;-1.64;100.00;97513.94;4996295;28;20813;-72
2022/12/01 02:53:00;;;;;;;28.07;20.67;;;;;;;-1.61;100.00;97520.72;4992361;28;20469;-72
2022/12/01 02:55:27;;;;;;;26.77;19.70;;;;;;;-1.64;100.00;97520.91;4996510;28;20587;-71
2022/12/01 02:57:55;;;;;;;26.23;19.30;;;;;;;-1.61;100.00;97518.09;5004315;28;20231;-71
2022/12/01 03:00:23;;;;;;;23.53;19.83;;;;;;;-1.59;100.00;97521.44;5004841;28;21061;-71
2022/12/01 03:03:01;;;;;;;26.30;19.40;;;;;;;-1.58;100.00;97530.06;5026154;28;20758;-72
2022/12/01 03:05:40;;;;;;;26.10;19.30;;;;;;;-1.56;100.00;97531.63;4968026;28;20454;-70
2022/12/01 03:08:18;;;;;;;24.83;19.13;;;;;;;-1.53;100.00;97534.03;5004528;28;20223;-73
2022/12/01 03:10:53;;;;;;;26.80;18.30;;;;;;;-1.44;100.00;97529.16;5023782;28;20678;-73
2022/12/01 03:13:28;;;;;;;28.10;20.00;;;;;;;-1.40;100.00;97535.81;5002260;28;20454;-72
2022/12/01 03:15:59;;;;;;;26.37;19.73;;;;;;;-1.35;100.00;97539.81;5024024;28;20332;-72
2022/12/01 03:18:33;;;;;;;26.33;19.30;;;;;;;-1.34;100.00;97538.88;5020149;28;20224;-71
2022/12/01 03:21:06;;;;;;;28.60;19.20;;;;;;;-1.29;100.00;97535.13;4979640;28;21970;-71
2022/12/01 03:23:36;;;;;;;30.17;19.97;;;;;;;-1.26;100.00;97538.38;5024555;28;20788;-71
2022/12/01 03:26:06;;;;;;;33.93;20.50;;;;;;;-1.24;100.00;97531.31;5027333;28;20206;-72
2022/12/01 03:28:37;;;;;;;28.00;20.47;;;;;;;-1.28;100.00;97529.84;4996784;28;20444;-71
2022/12/01 03:31:15;;;;;;;23.50;19.00;;;;;;;-1.26;100.00;97525.38;5025817;28;20222;-71
2022/12/01 03:33:49;;;;;;;26.90;19.53;;;;;;;-1.21;100.00;97519.84;5024749;28;20836;-71
2022/12/01 03:36:19;;;;;;;25.77;19.10;;;;;;;-1.25;100.00;97513.19;5028455;28;20207;-71
2022/12/01 03:38:51;;;;;;;27.40;19.50;;;;;;;-1.31;100.00;97512.66;4974496;28;20603;-72
2022/12/01 03:41:21;;;;;;;24.53;19.23;;;;;;;-1.28;100.00;97511.66;5029256;28;20212;-72
2022/12/01 03:43:52;;;;;;;27.40;20.73;;;;;;;-1.35;100.00;97507.75;4999067;28;20477;-72
2022/12/01 03:46:24;;;;;;;27.43;20.23;;;;;;;-1.36;100.00;97506.09;5025654;28;20707;-72
2022/12/01 03:48:54;;;;;;;25.63;20.23;;;;;;;-1.35;100.00;97506.00;5027335;28;20616;-73
2022/12/01 03:51:28;;;;;;;23.47;19.73;;;;;;;-1.37;100.00;97509.63;5030874;28;20207;-70
2022/12/01 03:53:59;;;;;;;29.40;21.13;;;;;;;-1.40;100.00;97515.03;4993355;28;20416;-72
2022/12/01 03:56:30;;;;;;;29.30;20.23;;;;;;;-1.30;100.00;97508.31;5029590;28;20728;-72
2022/12/01 03:59:00;;;;;;;27.77;20.57;;;;;;;-1.28;100.00;97513.41;5023115;28;20734;-72
2022/12/01 04:01:31;;;;;;;31.50;21.67;;;;;;;-1.28;100.00;97518.59;5002317;28;20276;-71
2022/12/01 04:04:05;;;;;;;29.83;21.00;;;;;;;-1.27;100.00;97505.50;5024901;28;20768;-71
2022/12/01 04:06:33;;;;;;;32.23;21.20;;;;;;;-1.29;100.00;97512.56;5025761;28;20775;-71
2022/12/01 04:09:01;;;;;;;27.63;19.67;;;;;;;-1.21;100.00;97518.09;4972997;28;20353;-70
2022/12/01 04:14:14;;;;;;;25.17;19.67;;;;;;;-1.27;100.00;97512.47;5025873;28;20933;-72
2022/12/01 04:16:42;;;;;;;27.30;20.50;;;;;;;-1.32;100.00;97517.97;4996763;28;20330;-68
2022/12/01 04:19:11;;;;;;;31.33;20.43;;;;;;;-1.41;100.00;97514.22;5029089;28;20219;-69
2022/12/01 04:21:39;;;;;;;26.30;20.13;;;;;;;-1.41;100.00;97518.56;5020654;28;21647;-71
2022/12/01 04:24:07;;;;;;;26.97;19.97;;;;;;;-1.48;100.00;97515.56;4983418;28;20207;-71
2022/12/01 04:26:37;;;;;;;30.80;20.47;;;;;;;-1.52;100.00;97522.69;5025677;28;20880;-70
2022/12/01 04:29:06;;;;;;;28.83;18.70;;;;;;;-1.54;100.00;97526.31;5029180;28;20962;-73
2022/12/01 04:31:34;;;;;;;30.03;19.40;;;;;;;-1.63;100.00;97525.19;4995821;28;20450;-72
2022/12/01 04:34:02;;;;;;;25.83;19.07;;;;;;;-1.63;100.00;97518.19;5027020;28;20810;-72
2022/12/01 04:36:33;;;;;;;26.97;19.00;;;;;;;-1.68;100.00;97516.84;5026151;28;20200;-71
2022/12/01 04:39:01;;;;;;;29.40;20.77;;;;;;;-1.72;100.00;97513.59;4979810;28;20535;-70
2022/12/01 04:41:29;;;;;;;28.23;19.53;;;;;;;-1.80;100.00;97527.06;5021404;28;20590;-72
2022/12/01 04:43:57;;;;;;;24.70;19.40;;;;;;;-1.81;100.00;97515.00;5031602;28;20465;-71
2022/12/01 04:46:25;;;;;;;27.97;20.27;;;;;;;-1.75;100.00;97514.63;4998420;28;20214;-69
2022/12/01 04:48:53;;;;;;;29.13;20.73;;;;;;;-1.70;100.00;97514.34;5032750;28;20926;-72
2022/12/01 04:51:21;;;;;;;29.30;20.83;;;;;;;-1.69;100.00;97515.19;4997183;28;20437;-71
2022/12/01 04:53:50;;;;;;;27.60;20.13;;;;;;;-1.70;100.00;97511.72;5029613;28;20257;-72
2022/12/01 04:56:18;;;;;;;28.23;20.40;;;;;;;-1.68;100.00;97514.25;4979678;28;21557;-69
2022/12/01 04:58:46;;;;;;;27.53;20.57;;;;;;;-1.71;100.00;97512.66;5033710;28;20211;-73
2022/12/01 05:01:16;;;;;;;28.33;20.77;;;;;;;-1.70;100.00;97508.31;5026132;28;20192;-71
2022/12/01 05:03:48;;;;;;;30.37;21.27;;;;;;;-1.69;100.00;97513.41;5011604;28;20407;-72
2022/12/01 05:06:17;;;;;;;27.87;21.03;;;;;;;-1.71;100.00;97511.81;5031702;28;20269;-70
2022/12/01 05:08:45;;;;;;;26.70;19.27;;;;;;;-1.75;100.00;97514.63;5031673;28;20250;-74
2022/12/01 05:11:15;;;;;;;30.03;20.83;;;;;;;-1.77;100.00;97513.88;4998238;28;20208;-72
2022/12/01 05:13:45;;;;;;;26.27;20.60;;;;;;;-1.79;100.00;97517.53;4989701;28;20208;-72
2022/12/01 05:16:13;;;;;;;27.23;19.27;;;;;;;-1.79;100.00;97509.72;5032988;28;20218;-73
2022/12/01 05:18:42;;;;;;;30.53;22.07;;;;;;;-1.88;100.00;97513.75;5033039;28;20452;-70
2022/12/01 05:21:09;;;;;;;34.93;20.20;;;;;;;-1.91;100.00;97514.75;5028190;28;20262;-72
2022/12/01 05:23:38;;;;;;;28.63;20.07;;;;;;;-1.95;100.00;97526.28;5032305;28;20832;-70
2022/12/01 05:26:07;;;;;;;32.57;22.30;;;;;;;-1.98;100.00;97520.47;5032492;28;20540;-72
2022/12/01 05:28:36;;;;;;;28.43;20.67;;;;;;;-2.04;100.00;97508.69;4994632;28;20470;-73
2022/12/01 05:31:04;;;;;;;30.40;21.93;;;;;;;-2.05;100.00;97517.41;5004877;28;20718;-72
2022/12/01 05:33:31;;;;;;;26.60;19.77;;;;;;;-2.06;100.00;97523.53;5031421;28;21224;-72
2022/12/01 05:35:59;;;;;;;30.97;22.73;;;;;;;-2.09;100.00;97521.94;5009394;28;20287;-71
2022/12/01 05:38:27;;;;;;;30.57;21.33;;;;;;;-2.13;100.00;97515.28;5019377;28;20223;-70
2022/12/01 05:40:55;;;;;;;27.37;19.77;;;;;;;-2.12;100.00;97516.94;5032789;28;20203;-69
2022/12/01 05:43:24;;;;;;;29.30;21.00;;;;;;;-2.18;100.00;97514.75;4990421;28;20212;-71
2022/12/01 05:45:57;;;;;;;32.00;20.70;;;;;;;-2.22;100.00;97516.72;5029670;28;20212;-72
2022/12/01 05:48:25;;;;;;;25.17;18.77;;;;;;;-2.16;100.00;97515.47;5027449;28;20219;-72
2022/12/01 05:50:53;;;;;;;28.00;20.97;;;;;;;-2.20;100.00;97516.59;5007894;28;20337;-72
2022/12/01 05:53:21;;;;;;;27.37;21.00;;;;;;;-2.23;100.00;97521.97;5024626;28;20315;-71
2022/12/01 05:55:51;;;;;;;30.03;21.50;;;;;;;-2.25;100.00;97514.31;5030819;28;20203;-72
2022/12/01 05:58:19;;;;;;;28.13;21.50;;;;;;;-2.24;100.00;97515.13;4983289;28;20247;-71
2022/12/01 06:00:48;;;;;;;32.00;21.60;;;;;;;-2.25;100.00;97526.44;5008998;28;20402;-70
2022/12/01 06:03:17;;;;;;;32.73;22.10;;;;;;;-2.29;100.00;97518.00;5030004;28;20204;-70
2022/12/01 06:05:44;;;;;;;30.17;21.13;;;;;;;-2.26;100.00;97524.78;5028511;28;20617;-70
2022/12/01 06:08:12;;;;;;;32.73;21.67;;;;;;;-2.25;100.00;97529.03;5029208;28;21026;-70
2022/12/01 06:10:40;;;;;;;29.73;21.27;;;;;;;-2.30;100.00;97524.13;5027260;28;20967;-71
2022/12/01 06:13:08;;;;;;;31.97;21.53;;;;;;;-2.30;100.00;97520.69;5030537;28;20218;-73
2022/12/01 06:15:36;;;;;;;29.53;22.10;;;;;;;-2.30;100.00;97523.31;4949505;28;20223;-72
2022/12/01 06:18:04;;;;;;;32.60;22.50;;;;;;;-2.31;100.00;97519.03;5029955;28;20905;-73
2022/12/01 06:20:33;;;;;;;31.63;21.07;;;;;;;-2.31;100.00;97514.66;5021266;28;20306;-72
2022/12/01 06:23:01;;;;;;;31.50;20.70;;;;;;;-2.22;100.00;97521.06;5027368;28;20663;-72
2022/12/01 06:25:29;;;;;;;33.03;21.60;;;;;;;-2.25;100.00;97516.06;5026515;28;20849;-72
2022/12/01 06:27:57;;;;;;;29.60;20.30;;;;;;;-2.26;100.00;97530.81;5029648;28;20227;-72
2022/12/01 06:30:25;;;;;;;33.57;23.00;;;;;;;-2.33;100.00;97532.09;4934623;28;20362;-74
2022/12/01 06:32:53;;;;;;;29.70;22.00;;;;;;;-2.35;100.00;97533.94;5029033;28;20675;-69
2022/12/01 06:35:20;;;;;;;28.27;20.63;;;;;;;-2.36;100.00;97527.94;5005824;28;21480;-71
2022/12/01 06:37:49;;;;;;;30.90;21.07;;;;;;;-2.34;100.00;97530.44;5029838;28;20740;-72
2022/12/01 06:41:49;;;;;;;28.20;20.83;;;;;;;-2.43;100.00;97529.25;5070735;27;20349;-71
2022/12/01 06:44:17;;;;;;;32.40;21.80;;;;;;;-2.41;100.00;97531.75;4998329;28;20425;-73
2022/12/01 06:46:45;;;;;;;31.03;22.20;;;;;;;-2.33;100.00;97537.28;4970219;28;20223;-69
2022/12/01 06:49:13;;;;;;;28.37;21.07;;;;;;;-2.30;100.00;97533.69;5017905;28;20275;-70
2022/12/01 06:51:41;;;;;;;32.87;22.90;;;;;;;-2.23;100.00;97535.81;4994476;28;20579;-73
2022/12/01 06:54:11;;;;;;;27.63;20.27;;;;;;;-2.25;100.00;97534.22;5013756;28;20440;-73
2022/12/01 06:56:39;;;;;;;30.97;20.83;;;;;;;-2.22;100.00;97534.88;5017210;28;20208;-72
2022/12/01 06:59:08;;;;;;;32.73;24.67;;;;;;;-2.22;100.00;97537.47;4982376;28;20679;-69
2022/12/01 07:01:36;;;;;;;27.90;20.87;;;;;;;-2.13;100.00;97540.44;5014669;28;20306;-72
2022/12/01 07:04:04;;;;;;;31.10;22.30;;;;;;;-2.14;100.00;97538.75;4965245;28;20227;-72
2022/12/01 07:06:32;;;;;;;32.67;23.20;;;;;;;-2.12;100.00;97542.09;4986975;28;20291;-71
2022/12/01 07:09:00;;;;;;;30.93;21.77;;;;;;;-2.10;100.00;97541.06;5004161;28;20232;-71
2022/12/01 07:11:31;;;;;;;30.10;20.93;;;;;;;-2.06;100.00;97542.56;5012090;28;20204;-71
2022/12/01 07:13:59;;;;;;;30.73;21.27;;;;;;;-2.07;100.00;97540.03;4996543;28;20208;-73
2022/12/01 07:16:28;;;;;;;35.03;23.93;;;;;;;-2.08;100.00;97546.16;5008328;28;20205;-71
2022/12/01 07:18:56;;;;;;;30.20;20.67;;;;;;;-2.07;100.00;97540.88;4976936;28;20466;-71
2022/12/01 07:21:24;;;;;;;30.87;21.63;;;;;;;-2.12;100.00;97542.91;4963820;28;20245;-70
2022/12/01 07:23:52;;;;;;;31.03;22.10;;;;;;;-2.09;100.00;97541.91;5010820;28;20792;-71
2022/12/01 07:26:20;;;;;;;31.93;21.03;;;;;;;-2.10;100.00;97541.06;5010236;28;20455;-70
2022/12/01 07:28:48;;;;;;;32.77;21.60;;;;;;;-2.10;100.00;97546.25;5009042;28;20562;-70
2022/12/01 07:31:16;;;;;;;30.40;21.90;;;;;;;-2.09;100.00;97555.69;5015830;28;20212;-71
2022/12/01 07:33:46;;;;;;;35.73;22.77;;;;;;;-2.10;100.00;97553.22;5010580;28;20231;-71
2022/12/01 07:36:14;;;;;;;34.30;22.70;;;;;;;-2.06;100.00;97552.09;4969774;28;20238;-69
2022/12/01 07:38:42;;;;;;;29.17;20.63;;;;;;;-2.00;100.00;97551.72;5022232;28;20436;-70
2022/12/01 07:41:11;;;;;;;33.87;22.43;;;;;;;-1.94;100.00;97553.91;5019407;28;20485;-71
2022/12/01 07:43:39;;;;;;;28.43;20.83;;;;;;;-1.94;100.00;97555.69;5007516;28;20672;-70
2022/12/01 07:46:08;;;;;;;33.30;22.60;;;;;;;-1.88;100.00;97562.28;5012679;28;20216;-70
2022/12/01 07:48:37;;;;;;;32.33;22.73;;;;;;;-1.83;100.00;97553.25;5011544;28;20569;-70
2022/12/01 07:51:08;;;;;;;35.67;23.23;;;;;;;-1.80;100.00;97550.44;4963777;28;21033;-71
2022/12/01 07:53:36;;;;;;;30.33;21.23;;;;;;;-1.75;100.00;97557.97;4995280;28;20471;-70
2022/12/01 07:56:05;;;;;;;32.37;21.90;;;;;;;-1.67;100.00;97554.88;4998320;28;20205;-71
2022/12/01 07:58:35;;;;;;;32.97;23.20;;;;;;;-1.61;100.00;97546.69;4996546;28;20533;-69
2022/12/01 08:01:06;;;;;;;34.80;22.97;;;;;;;-1.55;100.00;97556.69;4999250;28;20229;-68
2022/12/01 08:03:34;;;;;;;34.90;22.53;;;;;;;-1.37;100.00;97559.88;4995694;28;20237;-70
2022/12/01 08:06:03;;;;;;;32.43;23.53;;;;;;;-1.27;100.00;97565.31;4948537;28;20217;-71
2022/12/01 08:08:32;;;;;;;37.87;24.93;;;;;;;-1.21;100.00;97567.50;5001727;28;20592;-70
2022/12/01 08:11:02;;;;;;;41.20;25.90;;;;;;;-1.14;100.00;97562.72;5012707;28;20207;-71
2022/12/01 08:13:30;;;;;;;40.00;26.77;;;;;;;-0.94;100.00;97564.03;4996806;28;20211;-70
2022/12/01 08:15:58;;;;;;;40.30;27.77;;;;;;;-0.76;100.00;97553.31;4998457;28;20224;-70
2022/12/01 08:18:26;;;;;;;40.03;29.50;;;;;;;-0.73;100.00;97559.16;5005353;28;20227;-70
2022/12/01 08:20:56;;;;;;;39.83;27.03;;;;;;;-0.57;100.00;97559.84;5000056;28;20228;-72
2022/12/01 08:23:25;;;;;;;39.07;26.80;;;;;;;-0.57;100.00;97567.66;4953687;28;20528;-71
2022/12/01 08:25:54;;;;;;;34.30;24.07;;;;;;;-0.68;100.00;97564.03;4992800;28;20418;-71
2022/12/01 08:28:21;;;;;;;28.03;21.53;;;;;;;-0.78;100.00;97563.00;5000149;28;20231;-70
2022/12/01 08:30:49;;;;;;;34.67;24.00;;;;;;;-0.89;100.00;97567.16;5002536;28;20591;-69
2022/12/01 08:33:17;;;;;;;30.03;21.90;;;;;;;-0.94;100.00;97565.78;5000311;28;20215;-71
2022/12/01 08:35:45;;;;;;;30.77;23.33;;;;;;;-0.98;100.00;97565.13;5001007;28;20427;-71
2022/12/01 08:38:13;;;;;;;30.43;22.07;;;;;;;-1.03;100.00;97565.47;4951370;28;20236;-72
2022/12/01 08:40:40;;;;;;;28.30;21.93;;;;;;;-0.98;100.00;97570.34;4993928;28;20232;-70
2022/12/01 08:43:09;;;;;;;30.67;23.33;;;;;;;-0.94;100.00;97569.22;5004494;28;20216;-69
2022/12/01 08:45:58;;;;;;;27.73;21.77;;;;;;;-0.84;100.00;97572.03;4993434;28;20333;-71
2022/12/01 08:48:28;;;;;;;31.50;22.47;;;;;;;-0.80;100.00;97572.66;4999839;28;20224;-69
2022/12/01 08:51:04;;;;;;;28.07;21.27;;;;;;;-0.72;100.00;97575.56;5003024;28;20651;-69
2022/12/01 08:53:33;;;;;;;29.50;21.77;;;;;;;-0.70;100.00;97570.28;4945151;28;20348;-71
2022/12/01 08:56:01;;;;;;;26.33;22.47;;;;;;;-0.62;100.00;97573.19;4992813;28;20203;-72
2022/12/01 08:58:30;;;;;;;31.30;23.73;;;;;;;-0.60;100.00;97577.34;5007095;28;20224;-70
2022/12/01 09:01:02;;;;;;;32.30;23.47;;;;;;;-0.55;100.00;97582.25;4997477;28;20816;-71
2022/12/01 09:03:31;;;;;;;34.93;24.03;;;;;;;-0.49;100.00;97574.00;4994493;28;20217;-72
2022/12/01 09:06:03;;;;;;;29.43;21.57;;;;;;;-0.35;100.00;97585.28;4998854;28;20217;-72
2022/12/01 09:08:34;;;;;;;33.30;24.00;;;;;;;-0.27;100.00;97582.97;4950588;28;20240;-69
2022/12/01 09:11:04;;;;;;;28.83;23.50;;;;;;;-0.28;100.00;97572.66;4999331;28;20727;-70
2022/12/01 09:13:34;;;;;;;32.60;22.40;;;;;;;-0.19;100.00;97577.22;5000293;28;20212;-72
2022/12/01 09:16:04;;;;;;;30.60;23.73;;;;;;;-0.21;100.00;97579.09;5001250;28;20604;-72
2022/12/01 09:18:32;;;;;;;35.03;25.43;;;;;;;-0.24;100.00;97582.75;5002702;28;20232;-71
2022/12/01 09:21:00;;;;;;;37.70;26.20;;;;;;;-0.20;100.00;97583.34;4998161;28;20344;-72
2022/12/01 09:23:28;;;;;;;30.90;24.10;;;;;;;-0.18;100.00;97578.91;4948013;28;20212;-71
2022/12/01 09:25:55;;;;;;;33.43;24.00;;;;;;;-0.18;100.00;97586.72;4998710;28;20496;-72
2022/12/01 09:28:23;;;;;;;31.43;22.87;;;;;;;-0.10;100.00;97581.81;4948584;28;21161;-73
2022/12/01 09:30:53;;;;;;;29.30;23.43;;;;;;;-0.01;100.00;97578.56;4983155;28;20220;-72
2022/12/01 09:33:20;;;;;;;30.20;23.07;;;;;;;0.10;100.00;97574.34;4994626;28;20200;-69
2022/12/01 09:35:48;;;;;;;29.77;22.10;;;;;;;0.07;100.00;97569.34;4967635;28;20212;-73
2022/12/01 09:38:16;;;;;;;32.40;23.07;;;;;;;0.14;100.00;97578.41;5003685;28;20232;-70
2022/12/01 09:40:44;;;;;;;28.20;21.30;;;;;;;0.20;100.00;97570.16;5001307;28;20217;-70
2022/12/01 09:43:16;;;;;;;26.87;22.13;;;;;;;0.28;100.00;97572.22;4943838;28;21127;-71
2022/12/01 09:45:48;;;;;;;32.87;22.17;;;;;;;0.26;100.00;97563.66;4997005;28;20720;-71
2022/12/01 09:48:25;;;;;;;24.40;21.10;;;;;;;0.23;100.00;97574.31;4998473;28;20233;-72
2022/12/01 09:50:53;;;;;;;28.50;21.43;;;;;;;0.22;100.00;97559.63;4994299;28;20217;-71
2022/12/01 09:53:24;;;;;;;28.13;21.17;;;;;;;0.26;100.00;97559.31;4985293;28;20309;-69
2022/12/01 09:55:52;;;;;;;25.67;21.00;;;;;;;0.35;100.00;97568.22;5003261;28;20619;-71
2022/12/01 09:58:23;;;;;;;28.77;22.70;;;;;;;0.51;100.00;97551.47;4947944;28;21166;-71
2022/12/01 10:00:51;;;;;;;26.53;21.77;;;;;;;0.70;100.00;97557.00;4991277;28;20201;-71
2022/12/01 10:03:30;;;;;;;26.27;20.93;;;;;;;0.83;100.00;97549.13;4993512;28;20247;-69
2022/12/01 10:06:01;;;;;;;26.67;21.57;;;;;;;0.98;100.00;97543.72;4990915;28;20626;-70
2022/12/01 10:08:53;;;;;;;26.33;21.23;;;;;;;0.93;100.00;97551.03;5000357;28;20216;-71
2022/12/01 10:11:27;;;;;;;25.47;20.87;;;;;;;1.03;100.00;97544.19;5000445;28;21227;-72
2022/12/01 10:13:55;;;;;;;25.70;21.27;;;;;;;0.99;100.00;97535.75;4975010;28;20242;-71
2022/12/01 10:16:26;;;;;;;27.07;22.53;;;;;;;1.09;100.00;97542.88;4976025;28;20861;-71
2022/12/01 10:18:59;;;;;;;26.17;21.33;;;;;;;1.06;100.00;97538.75;4999291;28;20225;-71
2022/12/01 10:21:40;;;;;;;27.47;22.57;;;;;;;1.10;100.00;97534.97;4994415;28;20213;-71
2022/12/01 10:24:25;;;;;;;28.13;22.10;;;;;;;1.15;100.00;97529.41;4969165;28;20580;-71
2022/12/01 10:26:58;;;;;;;25.93;20.37;;;;;;;1.19;100.00;97523.00;5001120;28;20215;-71
2022/12/01 10:29:37;;;;;;;26.77;21.33;;;;;;;1.24;100.00;97523.47;4947374;28;20211;-73
2022/12/01 10:32:09;;;;;;;26.80;21.30;;;;;;;1.25;100.00;97526.91;4990887;28;20219;-71
2022/12/01 10:34:40;;;;;;;24.43;20.83;;;;;;;1.28;100.00;97524.06;5001311;28;20228;-70
2022/12/01 10:37:14;;;;;;;24.47;20.60;;;;;;;1.40;100.00;97515.31;4995215;28;20782;-71
2022/12/01 10:39:45;;;;;;;24.77;20.30;;;;;;;1.46;100.00;97515.78;4975502;28;20288;-72
2022/12/01 10:42:14;;;;;;;25.80;22.43;;;;;;;1.55;100.00;97521.13;4998085;28;20228;-71
2022/12/01 10:44:43;;;;;;;32.53;25.53;;;;;;;1.69;100.00;97506.97;4999815;28;20209;-72
2022/12/01 10:47:17;;;;;;;26.33;20.93;;;;;;;1.76;100.00;97512.56;4954188;28;20424;-72
2022/12/01 10:49:47;;;;;;;24.57;20.33;;;;;;;1.97;100.00;97504.81;5002579;28;20214;-73
2022/12/01 10:52:34;;;;;;;24.40;20.13;;;;;;;2.11;100.00;97505.50;4998581;28;20509;-72
2022/12/01 10:55:03;;;;;;;25.97;20.77;;;;;;;2.25;100.00;97499.16;4973417;28;21121;-72
2022/12/01 10:57:31;;;;;;;23.90;20.30;;;;;;;2.30;100.00;97499.63;5006305;28;20224;-72
2022/12/01 11:00:01;;;;;;;25.03;20.27;;;;;;;2.39;100.00;97493.66;4961223;28;20250;-69
2022/12/01 11:02:30;;;;;;;21.80;18.70;;;;;;;2.48;100.00;97489.47;4999456;28;20240;-72
2022/12/01 11:05:01;;;;;;;23.10;20.60;;;;;;;2.55;100.00;97493.22;4994422;28;20205;-71
2022/12/01 11:07:33;;;;;;;23.23;19.30;;;;;;;2.71;100.00;97492.81;4998217;28;20224;-73
2022/12/01 11:10:17;;;;;;;21.57;19.27;;;;;;;2.79;100.00;97486.91;4981317;28;20204;-70
2022/12/01 11:12:46;;;;;;;25.43;19.20;;;;;;;2.88;100.00;97478.31;5002667;28;20250;-72
2022/12/01 11:15:20;;;;;;;21.83;19.13;;;;;;;2.97;100.00;97481.13;4996266;28;20420;-72
2022/12/01 11:17:48;;;;;;;24.70;22.10;;;;;;;2.99;100.00;97479.22;4945665;28;20918;-71
2022/12/01 11:20:30;;;;;;;24.80;21.37;;;;;;;2.75;100.00;97470.66;4994853;28;21310;-73
2022/12/01 11:23:24;;;;;;;20.40;18.23;;;;;;;2.66;100.00;97474.03;4999850;28;20240;-71
2022/12/01 11:26:05;;;;;;;20.97;18.67;;;;;;;2.56;100.00;97465.28;4995237;28;20249;-71
2022/12/01 11:28:34;;;;;;;22.07;18.67;;;;;;;2.81;100.00;97466.69;5007017;28;20322;-72